createdAt,value
2019-03-16T00:03:45.798Z,67.60
2019-03-16T00:07:57.071Z,68.10
2019-03-16T00:12:08.402Z,68.60
2019-03-16T00:16:19.663Z,69.30
2019-03-16T00:20:31.456Z,69.60
2019-03-16T00:24:43.950Z,70.00
2019-03-16T00:28:55.169Z,70.60
2019-03-16T00:33:06.312Z,71.00
2019-03-16T00:37:17.590Z,71.70
2019-03-16T00:41:28.733Z,71.80
2019-03-16T00:45:40.019Z,72.10
2019-03-16T00:49:51.277Z,72.80
2019-03-16T00:54:02.574Z,73.20
2019-03-16T00:58:15.282Z,73.60
2019-03-16T01:02:27.606Z,73.70
2019-03-16T01:06:39.036Z,73.40
2019-03-16T01:10:50.467Z,73.40
2019-03-16T01:15:03.329Z,73.80
2019-03-16T01:19:16.147Z,74.10
2019-03-16T01:23:27.556Z,74.40
2019-03-16T01:27:38.215Z,74.30
2019-03-16T01:31:48.813Z,74.10
2019-03-16T01:36:00.736Z,74.20
2019-03-16T01:40:14.165Z,74.30
2019-03-16T01:44:25.510Z,74.50
2019-03-16T01:48:37.529Z,74.40
2019-03-16T01:52:48.858Z,73.90
2019-03-16T01:57:00.030Z,73.80
2019-03-16T02:01:11.195Z,73.80
2019-03-16T02:05:22.783Z,74.20
2019-03-16T02:09:34.018Z,74.00
2019-03-16T02:13:46.572Z,73.70
2019-03-16T02:17:56.969Z,73.50
2019-03-16T02:22:09.820Z,73.00
2019-03-16T02:26:21.054Z,72.90
2019-03-16T02:30:32.346Z,73.10
2019-03-16T02:34:44.500Z,72.60
2019-03-16T02:38:57.392Z,73.10
2019-03-16T02:43:08.564Z,72.70
2019-03-16T02:47:19.805Z,72.80
2019-03-16T02:51:31.108Z,72.40
2019-03-16T02:55:42.437Z,73.30
2019-03-16T02:59:54.353Z,72.90
2019-03-16T03:04:07.056Z,72.80
2019-03-16T03:08:18.441Z,72.60
2019-03-16T03:12:31.323Z,72.30
2019-03-16T03:16:42.703Z,72.60
2019-03-16T03:20:53.881Z,72.60
2019-03-16T03:25:05.998Z,72.30
2019-03-16T03:29:17.139Z,72.30
2019-03-16T03:33:56.250Z,72.40
2019-03-16T03:37:41.545Z,72.10
2019-03-16T03:41:52.752Z,72.30
2019-03-16T03:46:04.052Z,72.50
2019-03-16T03:50:15.784Z,72.70
2019-03-16T03:54:27.041Z,72.80
2019-03-16T03:58:38.499Z,73.20
2019-03-16T04:02:49.697Z,73.50
2019-03-16T04:07:01.062Z,74.10
2019-03-16T04:11:13.341Z,74.30
2019-03-16T04:15:24.462Z,74.80
2019-03-16T04:19:37.279Z,75.20
2019-03-16T04:23:48.400Z,75.40
2019-03-16T04:27:59.742Z,76.30
2019-03-16T04:32:10.965Z,75.50
2019-03-16T04:36:22.115Z,76.00
2019-03-16T04:40:33.749Z,76.10
2019-03-16T04:44:45.027Z,76.10
2019-03-16T04:48:56.200Z,75.60
2019-03-16T04:53:08.973Z,75.70
2019-03-16T04:57:21.314Z,75.50
2019-03-16T05:01:32.773Z,75.80
2019-03-16T05:05:43.900Z,75.60
2019-03-16T05:09:55.179Z,75.40
2019-03-16T05:14:06.469Z,75.20
2019-03-16T05:18:17.748Z,75.00
2019-03-16T05:22:28.860Z,75.30
2019-03-16T05:26:42.952Z,75.40
2019-03-16T05:30:55.390Z,75.50
2019-03-16T05:35:07.773Z,75.30
2019-03-16T05:39:19.072Z,75.30
2019-03-16T05:43:30.427Z,74.50
2019-03-16T05:47:40.715Z,74.50
2019-03-16T05:51:50.868Z,73.80
2019-03-16T05:56:05.405Z,73.50
2019-03-16T06:00:17.027Z,73.40
2019-03-16T06:04:29.768Z,73.10
2019-03-16T06:08:41.040Z,72.90
2019-03-16T06:12:52.263Z,73.00
2019-03-16T06:17:03.487Z,72.80
2019-03-16T06:21:15.381Z,72.80
2019-03-16T06:25:26.635Z,72.80
2019-03-16T06:29:37.322Z,72.50
2019-03-16T06:33:48.446Z,72.50
2019-03-16T06:37:59.638Z,72.10
2019-03-16T06:42:10.806Z,72.00
2019-03-16T06:46:22.093Z,71.60
2019-03-16T06:50:37.535Z,71.60
2019-03-16T06:54:48.968Z,71.60
2019-03-16T06:59:00.244Z,71.40
2019-03-16T07:03:12.152Z,71.50
2019-03-16T07:07:23.336Z,71.10
2019-03-16T07:11:37.148Z,71.20
2019-03-16T07:15:49.903Z,71.00
2019-03-16T07:20:01.280Z,71.10
2019-03-16T07:24:14.142Z,70.90
2019-03-16T07:28:25.360Z,70.70
2019-03-16T07:32:37.692Z,70.90
2019-03-16T07:36:48.956Z,70.20
2019-03-16T07:41:00.083Z,70.50
2019-03-16T07:45:12.650Z,70.70
2019-03-16T07:49:23.948Z,70.90
2019-03-16T07:53:36.000Z,70.60
2019-03-16T07:57:47.126Z,70.30
2019-03-16T08:01:59.028Z,70.90
2019-03-16T08:06:10.245Z,70.20
2019-03-16T08:10:21.598Z,68.50
2019-03-16T08:14:32.768Z,67.60
2019-03-16T08:18:44.040Z,68.80
2019-03-16T08:22:55.385Z,69.80
2019-03-16T08:27:07.642Z,69.70
2019-03-16T08:31:19.069Z,70.50
2019-03-16T08:35:30.315Z,72.50
2019-03-16T08:39:43.490Z,73.90
2019-03-16T08:43:55.344Z,72.90
2019-03-16T08:48:06.582Z,74.40
2019-03-16T08:52:17.732Z,75.40
2019-03-16T08:56:30.333Z,76.10
2019-03-16T09:00:42.452Z,77.00
2019-03-16T09:04:53.579Z,78.90
2019-03-16T09:09:07.825Z,78.30
2019-03-16T09:13:18.993Z,80.60
2019-03-16T09:17:32.939Z,83.00
2019-03-16T09:21:43.855Z,85.10
2019-03-16T09:25:55.153Z,85.90
2019-03-16T09:30:09.471Z,86.80
2019-03-16T09:34:20.759Z,88.40
2019-03-16T09:38:32.966Z,89.70
2019-03-16T09:42:45.824Z,90.60
2019-03-16T09:46:57.067Z,90.60
2019-03-16T09:51:09.794Z,90.60
2019-03-16T09:55:20.954Z,90.80
2019-03-16T09:59:32.325Z,90.90
2019-03-16T10:03:43.727Z,91.40
2019-03-16T10:07:55.041Z,91.60
2019-03-16T10:12:06.189Z,91.40
2019-03-16T10:16:17.437Z,92.10
2019-03-16T10:20:28.604Z,92.50
2019-03-16T10:24:40.163Z,93.20
2019-03-16T10:28:51.320Z,93.60
2019-03-16T10:33:03.489Z,93.90
2019-03-16T10:37:14.712Z,94.30
2019-03-16T10:41:25.881Z,94.60
2019-03-16T10:45:37.756Z,94.30
2019-03-16T10:49:49.548Z,94.30
2019-03-16T10:54:01.466Z,94.20
2019-03-16T10:58:12.845Z,94.40
2019-03-16T11:02:24.036Z,94.50
2019-03-16T11:06:35.426Z,94.60
2019-03-16T11:10:47.172Z,94.80
2019-03-16T11:14:58.456Z,94.80
2019-03-16T11:19:09.780Z,94.90
2019-03-16T11:23:21.769Z,95.10
2019-03-16T11:27:33.019Z,95.30
2019-03-16T11:31:44.781Z,95.30
2019-03-16T11:35:58.887Z,95.70
2019-03-16T11:40:13.118Z,95.40
2019-03-16T11:44:24.403Z,95.40
2019-03-16T11:48:35.780Z,95.60
2019-03-16T11:52:48.639Z,95.70
2019-03-16T11:56:59.797Z,95.80
2019-03-16T12:01:10.923Z,95.80
2019-03-16T12:05:22.191Z,96.00
2019-03-16T12:09:34.972Z,96.10
2019-03-16T12:13:46.748Z,96.10
2019-03-16T12:17:57.946Z,96.00
2019-03-16T12:22:10.176Z,96.30
2019-03-16T12:26:22.381Z,96.40
2019-03-16T12:30:34.720Z,96.40
2019-03-16T12:34:47.425Z,96.20
2019-03-16T12:38:58.679Z,96.20
2019-03-16T12:43:11.478Z,95.90
2019-03-16T12:47:24.292Z,95.70
2019-03-16T12:51:35.404Z,95.80
2019-03-16T12:55:46.646Z,95.60
2019-03-16T12:59:58.354Z,95.90
2019-03-16T13:04:09.645Z,95.90
2019-03-16T13:08:19.851Z,95.80
2019-03-16T13:12:31.101Z,95.60
2019-03-16T13:16:42.927Z,95.80
2019-03-16T13:20:54.063Z,95.70
2019-03-16T13:25:08.201Z,95.50
2019-03-16T13:29:19.363Z,95.30
2019-03-16T13:33:31.741Z,95.30
2019-03-16T13:37:42.909Z,95.30
2019-03-16T13:41:56.938Z,95.30
2019-03-16T13:46:08.104Z,95.40
2019-03-16T13:50:22.432Z,95.40
2019-03-16T13:54:34.507Z,95.30
2019-03-16T13:58:54.953Z,95.30
2019-03-16T14:02:59.675Z,95.30
2019-03-16T14:07:11.433Z,95.30
2019-03-16T14:11:22.587Z,95.30
2019-03-16T14:15:34.195Z,95.20
2019-03-16T14:19:49.015Z,95.10
2019-03-16T14:24:00.270Z,95.10
2019-03-16T14:28:10.354Z,95.10
2019-03-16T14:32:21.470Z,95.00
2019-03-16T14:36:34.487Z,94.90
2019-03-16T14:40:46.074Z,94.80
2019-03-16T14:44:57.333Z,94.70
2019-03-16T14:49:08.541Z,94.40
2019-03-16T14:53:19.815Z,94.30
2019-03-16T14:57:31.013Z,93.60
2019-03-16T15:01:42.373Z,92.80
2019-03-16T15:05:55.133Z,92.10
2019-03-16T15:10:11.878Z,90.80
2019-03-16T15:14:23.137Z,90.20
2019-03-16T15:18:34.428Z,89.30
2019-03-16T15:22:46.439Z,89.00
2019-03-16T15:27:00.436Z,88.10
2019-03-16T15:31:13.006Z,87.40
2019-03-16T15:35:27.184Z,86.60
2019-03-16T15:39:40.343Z,85.70
2019-03-16T15:43:51.951Z,85.00
2019-03-16T15:48:02.561Z,84.10
2019-03-16T15:52:13.798Z,83.40
2019-03-16T15:56:27.679Z,83.00
2019-03-16T16:00:42.593Z,82.80
2019-03-16T16:04:53.755Z,83.20
2019-03-16T16:09:06.391Z,83.80
2019-03-16T16:13:17.572Z,84.40
2019-03-16T16:17:30.923Z,85.00
2019-03-16T16:21:42.054Z,84.90
2019-03-16T16:25:54.816Z,83.50
2019-03-16T16:30:14.392Z,83.10
2019-03-16T16:34:24.464Z,81.40
2019-03-16T16:38:35.990Z,81.40
2019-03-16T16:42:47.227Z,80.20
2019-03-16T16:46:59.313Z,79.70
2019-03-16T16:51:11.099Z,79.10
2019-03-16T16:55:22.325Z,78.70
2019-03-16T16:59:34.601Z,78.90
2019-03-16T17:03:45.963Z,79.20
2019-03-16T17:07:57.214Z,79.30
2019-03-16T17:12:08.355Z,79.30
2019-03-16T17:16:21.261Z,78.70
2019-03-16T17:20:32.384Z,79.10
2019-03-16T17:24:44.921Z,79.60
2019-03-16T17:28:57.535Z,79.40
2019-03-16T17:33:08.792Z,79.30
2019-03-16T17:37:19.941Z,79.90
2019-03-16T17:41:31.161Z,80.30
2019-03-16T17:45:42.369Z,81.60
2019-03-16T17:49:53.943Z,80.20
2019-03-16T17:54:05.153Z,79.80
2019-03-16T17:58:18.858Z,79.60
2019-03-16T18:02:32.391Z,79.70
2019-03-16T18:06:43.553Z,79.60
2019-03-16T18:10:54.812Z,79.30
2019-03-16T18:15:11.619Z,79.20
2019-03-16T18:19:21.797Z,79.30
2019-03-16T18:23:34.535Z,79.10
2019-03-16T18:27:45.754Z,79.20
2019-03-16T18:32:07.279Z,79.50
2019-03-16T18:36:11.584Z,79.70
2019-03-16T18:40:23.435Z,79.80
2019-03-16T18:44:34.717Z,78.70
2019-03-16T18:48:45.937Z,78.30
2019-03-16T18:52:57.256Z,78.10
2019-03-16T18:57:09.104Z,78.30
2019-03-16T19:01:24.430Z,77.70
2019-03-16T19:05:36.049Z,77.30
2019-03-16T19:09:47.300Z,77.60
2019-03-16T19:13:58.768Z,77.40
2019-03-16T19:18:11.717Z,77.80
2019-03-16T19:22:22.867Z,77.40
2019-03-16T19:26:34.220Z,77.10
2019-03-16T19:30:47.061Z,75.90
2019-03-16T19:35:00.817Z,75.40
2019-03-16T19:39:15.004Z,75.10
2019-03-16T19:43:26.351Z,75.30
2019-03-16T19:47:37.604Z,74.20
2019-03-16T19:51:48.867Z,74.10
2019-03-16T19:56:00.098Z,73.60
2019-03-16T20:00:20.519Z,74.20
2019-03-16T20:04:36.229Z,74.40
2019-03-16T20:08:44.631Z,75.00
2019-03-16T20:12:55.257Z,75.00
2019-03-16T20:17:08.954Z,75.60
2019-03-16T20:21:20.131Z,75.40
2019-03-16T20:25:31.503Z,75.10
2019-03-16T20:29:44.360Z,75.30
2019-03-16T20:33:55.492Z,74.90
2019-03-16T20:38:06.756Z,74.40
2019-03-16T20:42:17.911Z,74.10
2019-03-16T20:46:29.149Z,73.90
2019-03-16T20:50:40.779Z,73.30
2019-03-16T20:54:52.044Z,72.80
2019-03-16T20:59:04.561Z,71.90
2019-03-16T21:03:16.617Z,72.20
2019-03-16T21:07:27.910Z,72.40
2019-03-16T21:11:39.078Z,72.60
2019-03-16T21:15:53.227Z,72.70
2019-03-16T21:20:09.513Z,72.80
2019-03-16T21:24:20.897Z,72.90
2019-03-16T21:28:32.139Z,73.50
2019-03-16T21:32:43.474Z,73.80
2019-03-16T21:36:55.964Z,73.80
2019-03-16T21:41:07.203Z,73.70
2019-03-16T21:45:19.663Z,73.70
2019-03-16T21:49:31.834Z,73.70
2019-03-16T21:53:41.864Z,73.90
2019-03-16T21:57:53.254Z,73.90
2019-03-16T22:02:04.535Z,74.40
2019-03-16T22:06:15.778Z,74.80
2019-03-16T22:10:26.921Z,74.30
2019-03-16T22:14:39.460Z,74.20
2019-03-16T22:18:51.314Z,74.00
2019-03-16T22:23:06.275Z,74.40
2019-03-16T22:27:16.975Z,74.30
2019-03-16T22:31:28.355Z,74.20
2019-03-16T22:35:39.676Z,74.20
2019-03-16T22:39:51.961Z,74.10
2019-03-16T22:44:03.232Z,74.30
2019-03-16T22:48:14.608Z,75.30
2019-03-16T22:52:25.787Z,75.50
2019-03-16T22:56:38.787Z,74.80
2019-03-16T23:00:52.371Z,74.20
2019-03-16T23:05:07.256Z,75.30
2019-03-16T23:09:18.472Z,75.30
2019-03-16T23:13:32.641Z,75.40
2019-03-16T23:17:44.479Z,75.80
2019-03-16T23:21:55.795Z,76.70
2019-03-16T23:26:07.844Z,77.20
2019-03-16T23:30:19.012Z,77.90
2019-03-16T23:34:30.417Z,78.40
2019-03-16T23:38:41.863Z,78.90
2019-03-16T23:42:53.132Z,78.70
2019-03-16T23:47:04.488Z,78.70
2019-03-16T23:51:17.556Z,78.60
2019-03-16T23:55:28.846Z,79.00
2019-03-16T23:59:40.101Z,79.00
